Time;durP1;ratioP1;P1;durP2;ratioP2;P2;SDS_P1;SDS_P2;PMS_P1;PMS_P2;Temp;Humidity;BMP_temperature;BMP_pressure;BME280_temperature;BME280_humidity;BME280_pressure;Samples;Min_cycle;Max_cycle;Signal;HPM_P1;HPM_P2
2022/10/19 00:01:58;;;;;;;10.65;5.07;;;;;;;8.80;87.13;102833.78;5063203;28;20460;-71
2022/10/19 00:04:23;;;;;;;11.40;5.30;;;;;;;8.80;86.88;102833.78;5062175;28;20040;-71
2022/10/19 00:06:49;;;;;;;7.20;4.20;;;;;;;8.73;86.37;102840.28;5059006;28;20034;-71
2022/10/19 00:09:17;;;;;;;7.60;3.60;;;;;;;8.62;86.47;102833.53;5063618;28;20032;-71
2022/10/19 00:11:46;;;;;;;8.73;3.53;;;;;;;8.51;86.68;102827.63;5072370;28;20032;-71
2022/10/19 00:14:14;;;;;;;8.50;3.80;;;;;;;8.47;87.20;102829.16;5070541;28;20024;-71
2022/10/19 00:16:41;;;;;;;5.67;3.23;;;;;;;8.46;87.55;102829.94;5062991;28;20391;-71
2022/10/19 00:19:11;;;;;;;5.45;2.97;;;;;;;8.40;86.32;102832.13;5061267;28;20781;-71
2022/10/19 00:21:38;;;;;;;4.88;2.90;;;;;;;8.33;86.29;102828.22;5075275;28;20028;-71
2022/10/19 00:24:04;;;;;;;7.00;3.38;;;;;;;8.27;86.99;102834.69;5059354;28;20031;-71
2022/10/19 00:26:29;;;;;;;6.28;3.25;;;;;;;8.15;87.26;102827.94;5058609;28;20032;-71
2022/10/19 00:28:56;;;;;;;7.32;3.20;;;;;;;8.07;87.44;102830.81;5059210;28;20098;-71
2022/10/19 00:31:21;;;;;;;6.50;3.75;;;;;;;8.06;87.76;102823.81;5061291;28;20021;-71
2022/10/19 00:33:47;;;;;;;7.72;3.78;;;;;;;8.05;87.67;102817.72;5060537;28;20396;-71
2022/10/19 00:36:33;;;;;;;8.77;3.90;;;;;;;8.08;87.74;102822.22;5060094;28;20442;-75
2022/10/19 00:38:59;;;;;;;9.13;5.35;;;;;;;8.08;87.55;102817.94;5060620;28;20032;-75
2022/10/19 00:41:29;;;;;;;11.00;5.88;;;;;;;8.10;88.07;102816.34;5062098;28;20020;-75
2022/10/19 00:43:59;;;;;;;6.80;4.60;;;;;;;8.16;88.24;102814.13;5059089;28;20047;-75
2022/10/19 00:46:27;;;;;;;10.40;4.70;;;;;;;8.21;87.86;102816.13;5059609;28;20051;-75
2022/10/19 00:48:57;;;;;;;8.88;5.20;;;;;;;8.19;87.57;102814.31;5073765;28;20020;-75
2022/10/19 00:51:24;;;;;;;9.65;5.03;;;;;;;8.19;87.41;102819.50;5060320;28;20103;-75
2022/10/19 00:53:50;;;;;;;10.65;5.78;;;;;;;8.16;87.21;102821.91;5061296;28;20024;-75
2022/10/19 00:56:16;;;;;;;12.25;6.03;;;;;;;8.13;87.31;102826.91;5061538;28;20025;-75
2022/10/19 00:58:42;;;;;;;10.68;5.43;;;;;;;8.11;87.57;102825.00;5059437;28;20024;-75
2022/10/19 01:01:11;;;;;;;11.80;5.63;;;;;;;8.08;87.66;102819.63;5061390;28;20024;-75
2022/10/19 01:03:38;;;;;;;11.82;6.10;;;;;;;8.06;87.77;102824.72;5065002;28;20063;-75
2022/10/19 01:06:03;;;;;;;10.05;5.82;;;;;;;8.05;87.58;102829.81;5061160;28;20028;-75
2022/10/19 01:08:29;;;;;;;12.43;6.03;;;;;;;8.04;87.64;102828.00;5066957;28;20082;-71
2022/10/19 01:11:19;;;;;;;9.40;5.68;;;;;;;8.05;87.90;102820.31;5065421;28;20016;-71
2022/10/19 01:14:09;;;;;;;13.02;5.95;;;;;;;8.03;88.01;102819.31;5058457;28;20028;-71
2022/10/19 01:17:03;;;;;;;10.73;6.25;;;;;;;8.03;88.15;102819.31;5061179;28;20043;-71
2022/10/19 01:19:37;;;;;;;14.98;5.95;;;;;;;8.01;87.87;102823.53;5059657;28;20093;-71
2022/10/19 01:22:19;;;;;;;11.43;6.28;;;;;;;7.99;87.83;102815.63;5061519;28;20476;-71
2022/10/19 01:24:58;;;;;;;11.43;6.38;;;;;;;7.98;87.86;102821.63;5058362;28;20063;-71
2022/10/19 01:27:51;;;;;;;14.02;6.47;;;;;;;8.01;87.95;102828.72;5060200;28;20059;-71
2022/10/19 01:30:37;;;;;;;12.40;6.38;;;;;;;8.01;87.97;102833.91;5074609;28;20113;-71
2022/10/19 01:33:17;;;;;;;11.55;6.63;;;;;;;7.98;88.13;102832.00;5059512;28;20048;-71
2022/10/19 01:36:00;;;;;;;9.45;6.13;;;;;;;7.98;87.93;102815.50;5060565;28;20546;-71
2022/10/19 01:38:34;;;;;;;10.85;5.75;;;;;;;7.97;87.65;102818.94;5060190;28;20108;-75
2022/10/19 01:41:21;;;;;;;12.77;6.57;;;;;;;7.94;88.05;102813.53;5058417;28;20106;-75
2022/10/19 01:44:02;;;;;;;15.32;6.85;;;;;;;7.92;87.78;102813.44;5060664;28;20036;-75
2022/10/19 01:46:37;;;;;;;19.83;6.85;;;;;;;7.90;88.24;102811.53;5062228;28;20032;-75
2022/10/19 01:49:15;;;;;;;11.52;6.40;;;;;;;7.89;88.45;102810.59;5058195;28;20048;-75
2022/10/19 01:51:56;;;;;;;14.60;7.00;;;;;;;7.90;88.21;102816.72;5058658;28;20032;-75
2022/10/19 01:54:25;;;;;;;13.02;7.20;;;;;;;7.86;88.36;102810.41;5058622;28;20355;-75
2022/10/19 01:56:53;;;;;;;14.88;7.72;;;;;;;7.84;88.09;102817.22;5074371;28;20852;-75
2022/10/19 01:59:20;;;;;;;14.43;7.57;;;;;;;7.83;88.75;102811.13;5061481;28;20684;-75
2022/10/19 02:01:48;;;;;;;12.35;6.88;;;;;;;7.83;88.57;102805.94;5059558;28;20487;-75
2022/10/19 02:04:17;;;;;;;11.93;7.25;;;;;;;7.82;88.50;102804.13;5059119;28;20033;-75
2022/10/19 02:06:43;;;;;;;14.63;7.22;;;;;;;7.83;88.76;102795.56;5058911;28;20539;-75
2022/10/19 02:09:08;;;;;;;14.23;7.18;;;;;;;7.82;88.89;102793.75;5061890;28;20035;-75
2022/10/19 02:11:36;;;;;;;15.38;6.82;;;;;;;7.83;88.64;102787.78;5069670;28;20236;-75
2022/10/19 02:14:11;;;;;;;14.23;7.60;;;;;;;7.81;88.77;102776.38;5066263;28;20028;-75
2022/10/19 02:16:45;;;;;;;17.17;7.80;;;;;;;7.79;88.69;102782.25;5062899;28;20135;-75
2022/10/19 02:19:14;;;;;;;13.05;7.30;;;;;;;7.78;88.84;102770.97;5063553;28;20020;-75
2022/10/19 02:21:39;;;;;;;11.52;7.07;;;;;;;7.78;89.42;102763.19;5062503;28;20044;-75
2022/10/19 02:24:05;;;;;;;12.55;7.10;;;;;;;7.77;88.96;102770.88;5059361;28;20050;-74
2022/10/19 02:26:30;;;;;;;16.30;7.90;;;;;;;7.76;88.84;102772.59;5058797;28;20515;-75
2022/10/19 02:28:57;;;;;;;15.18;8.30;;;;;;;7.74;88.92;102762.91;5060168;28;20547;-75
2022/10/19 02:31:22;;;;;;;12.82;7.45;;;;;;;7.73;88.99;102749.00;5075234;28;20614;-75
2022/10/19 02:33:47;;;;;;;11.68;7.13;;;;;;;7.72;88.95;102752.44;5057805;28;20115;-75
2022/10/19 02:36:13;;;;;;;13.90;7.57;;;;;;;7.70;88.99;102758.31;5059420;28;20086;-71
2022/10/19 02:38:40;;;;;;;14.82;7.88;;;;;;;7.66;88.67;102755.50;5058115;28;20448;-71
2022/10/19 02:41:10;;;;;;;16.13;7.97;;;;;;;7.65;88.75;102750.22;5057939;28;20028;-71
2022/10/19 02:43:38;;;;;;;14.00;7.18;;;;;;;7.63;88.33;102756.97;5057039;28;20027;-71
2022/10/19 02:46:41;;;;;;;14.23;7.53;;;;;;;7.63;88.67;102759.56;5059417;28;20563;-71
2022/10/19 02:49:08;;;;;;;16.15;7.63;;;;;;;7.59;88.77;102752.38;5055103;28;20036;-71
2022/10/19 02:51:37;;;;;;;14.40;7.63;;;;;;;7.55;88.49;102743.50;5057966;28;20028;-70
2022/10/19 02:54:04;;;;;;;14.32;7.72;;;;;;;7.54;88.53;102740.81;5056233;28;20023;-71
2022/10/19 02:56:30;;;;;;;14.35;7.25;;;;;;;7.52;88.95;102740.72;5059607;28;20033;-71
2022/10/19 02:58:55;;;;;;;14.18;7.25;;;;;;;7.53;89.14;102746.78;5059271;28;20040;-71
2022/10/19 03:01:21;;;;;;;14.10;6.88;;;;;;;7.53;88.85;102751.97;5057138;28;20443;-71
2022/10/19 03:03:46;;;;;;;12.43;7.28;;;;;;;7.51;88.83;102748.41;5057100;28;20365;-70
2022/10/19 03:06:12;;;;;;;13.75;7.22;;;;;;;7.49;88.78;102754.38;5062552;28;20495;-70
2022/10/19 03:08:37;;;;;;;16.92;7.30;;;;;;;7.47;88.82;102753.38;5069168;28;20047;-74
2022/10/19 03:11:03;;;;;;;12.77;6.40;;;;;;;7.46;88.85;102746.41;5067183;28;20020;-74
2022/10/19 03:13:28;;;;;;;15.77;7.30;;;;;;;7.46;88.99;102755.88;5057525;28;20067;-74
2022/10/19 03:15:54;;;;;;;14.38;6.60;;;;;;;7.44;88.83;102750.59;5057803;28;20515;-74
2022/10/19 03:18:19;;;;;;;14.27;6.55;;;;;;;7.42;88.74;102748.69;5057389;28;20028;-74
2022/10/19 03:20:44;;;;;;;10.85;6.50;;;;;;;7.41;89.37;102746.88;5062471;28;20029;-74
2022/10/19 03:23:09;;;;;;;11.15;6.50;;;;;;;7.39;89.08;102751.97;5061280;28;20020;-74
2022/10/19 03:25:35;;;;;;;14.32;6.85;;;;;;;7.39;88.95;102753.66;5064462;28;20062;-74
2022/10/19 03:28:00;;;;;;;12.15;7.00;;;;;;;7.38;89.13;102751.88;5083445;28;20032;-74
2022/10/19 03:30:25;;;;;;;13.80;7.32;;;;;;;7.36;89.13;102743.06;5061377;28;20059;-74
2022/10/19 03:32:51;;;;;;;13.10;6.90;;;;;;;7.34;89.03;102745.56;5073287;28;20464;-74
2022/10/19 03:35:16;;;;;;;10.52;6.32;;;;;;;7.33;88.83;102751.56;5073643;28;20070;-74
2022/10/19 03:37:41;;;;;;;11.38;6.25;;;;;;;7.31;89.18;102745.34;5068259;28;20069;-74
2022/10/19 03:40:07;;;;;;;13.60;6.65;;;;;;;7.30;89.40;102743.56;5062571;28;20684;-74
2022/10/19 03:42:32;;;;;;;9.85;5.85;;;;;;;7.28;89.34;102742.56;5077045;28;20403;-74
2022/10/19 03:44:58;;;;;;;13.65;6.47;;;;;;;7.29;89.19;102750.44;5062659;28;20082;-74
2022/10/19 03:47:23;;;;;;;11.45;6.32;;;;;;;7.27;89.16;102745.94;5062219;28;20464;-74
2022/10/19 03:49:49;;;;;;;12.93;7.10;;;;;;;7.27;89.06;102744.25;5079137;28;20493;-74
2022/10/19 03:52:16;;;;;;;11.27;6.32;;;;;;;7.24;88.76;102749.25;5061928;28;20087;-74
2022/10/19 03:54:41;;;;;;;12.48;6.97;;;;;;;7.24;88.95;102748.31;5060964;28;20176;-74
2022/10/19 03:57:06;;;;;;;13.63;7.70;;;;;;;7.21;89.17;102745.53;5079562;28;20483;-74
2022/10/19 03:59:32;;;;;;;12.60;6.50;;;;;;;7.20;89.08;102751.50;5073286;28;20310;-74
2022/10/19 04:01:57;;;;;;;11.50;6.65;;;;;;;7.18;88.94;102753.09;5067245;28;20033;-74
2022/10/19 04:04:22;;;;;;;12.90;7.20;;;;;;;7.17;88.71;102756.47;5060497;28;20393;-74
2022/10/19 04:06:49;;;;;;;13.82;6.20;;;;;;;7.14;89.48;102759.78;5062217;28;20101;-74
2022/10/19 04:09:17;;;;;;;15.52;7.57;;;;;;;7.13;89.13;102766.66;5061083;28;20039;-74
2022/10/19 04:11:42;;;;;;;13.57;7.75;;;;;;;7.11;88.85;102762.13;5061113;28;21472;-74
2022/10/19 04:14:11;;;;;;;12.80;6.82;;;;;;;7.09;89.00;102759.44;5060329;28;20057;-74
2022/10/19 04:16:36;;;;;;;11.80;7.00;;;;;;;7.08;88.92;102748.97;5061190;28;20028;-74
2022/10/19 04:19:01;;;;;;;14.18;6.72;;;;;;;7.07;88.77;102752.38;5061412;28;20028;-74
2022/10/19 04:21:35;;;;;;;13.45;6.90;;;;;;;7.04;89.32;102749.56;5060526;28;20487;-74
2022/10/19 04:24:09;;;;;;;12.90;6.72;;;;;;;7.05;89.43;102747.06;5076120;28;20024;-74
2022/10/19 04:26:46;;;;;;;9.98;6.43;;;;;;;7.05;89.25;102747.06;5062797;28;20033;-74
2022/10/19 04:29:13;;;;;;;10.40;5.88;;;;;;;7.06;89.08;102747.97;5082460;28;20044;-74
2022/10/19 04:31:39;;;;;;;10.63;6.60;;;;;;;7.02;88.64;102744.25;5058884;28;20024;-74
2022/10/19 04:34:05;;;;;;;10.55;6.63;;;;;;;6.98;88.60;102747.47;5068415;28;20484;-74
2022/10/19 04:36:30;;;;;;;10.13;6.13;;;;;;;6.95;88.48;102745.56;5082338;28;20029;-74
2022/10/19 04:38:56;;;;;;;10.88;6.05;;;;;;;6.94;88.48;102742.84;5061048;28;20301;-74
2022/10/19 04:41:22;;;;;;;13.68;6.47;;;;;;;6.90;88.61;102733.97;5077221;28;20120;-74
2022/10/19 04:43:49;;;;;;;11.20;6.20;;;;;;;6.88;88.46;102732.97;5061289;28;20035;-74
2022/10/19 04:46:17;;;;;;;15.93;7.00;;;;;;;6.85;88.23;102740.53;5075280;28;20545;-73
2022/10/19 04:48:43;;;;;;;12.75;6.35;;;;;;;6.81;88.44;102740.19;5062251;28;20047;-74
2022/10/19 04:51:09;;;;;;;11.27;6.60;;;;;;;6.80;88.78;102744.47;5058678;28;20020;-74
2022/10/19 04:53:36;;;;;;;11.60;6.82;;;;;;;6.76;88.83;102743.38;5059477;28;20036;-74
2022/10/19 04:56:07;;;;;;;12.65;7.07;;;;;;;6.74;89.02;102737.19;5061406;28;20491;-74
2022/10/19 04:58:32;;;;;;;11.32;6.22;;;;;;;6.72;88.64;102736.19;5072067;28;20032;-74
2022/10/19 05:00:57;;;;;;;13.50;6.35;;;;;;;6.72;88.66;102736.19;5069225;28;20028;-74
2022/10/19 05:03:23;;;;;;;9.43;6.07;;;;;;;6.72;88.87;102745.63;5074571;28;20029;-74
2022/10/19 05:05:48;;;;;;;11.95;6.32;;;;;;;6.70;88.61;102737.75;5061009;28;20020;-74
2022/10/19 05:08:14;;;;;;;13.52;6.50;;;;;;;6.67;88.91;102742.72;5060695;28;20028;-74
2022/10/19 05:10:39;;;;;;;12.98;7.43;;;;;;;6.63;88.95;102735.53;5062268;28;20051;-74
2022/10/19 05:13:05;;;;;;;11.50;7.15;;;;;;;6.65;88.87;102746.91;5060128;28;20066;-74
2022/10/19 05:15:30;;;;;;;12.38;7.07;;;;;;;6.63;88.95;102752.75;5060200;28;20396;-74
2022/10/19 05:17:56;;;;;;;11.70;6.65;;;;;;;6.62;89.12;102749.28;5060675;28;20033;-74
2022/10/19 05:20:21;;;;;;;14.25;6.68;;;;;;;6.59;89.07;102733.53;5068988;28;20593;-74
2022/10/19 05:22:47;;;;;;;14.88;7.03;;;;;;;6.58;89.29;102742.97;5070944;28;20483;-74
2022/10/19 05:25:12;;;;;;;13.65;7.50;;;;;;;6.56;89.03;102734.22;5063068;28;20027;-74
2022/10/19 05:27:37;;;;;;;12.40;7.60;;;;;;;6.56;89.40;102735.88;5063381;28;20081;-74
2022/10/19 05:30:05;;;;;;;14.52;7.00;;;;;;;6.54;89.45;102730.59;5059340;28;20128;-74
2022/10/19 05:32:30;;;;;;;14.23;7.40;;;;;;;6.53;89.11;102727.91;5060237;28;20028;-74
2022/10/19 05:34:55;;;;;;;12.30;6.82;;;;;;;6.52;89.27;102716.66;5069804;28;20044;-74
2022/10/19 05:37:21;;;;;;;16.00;7.68;;;;;;;6.51;89.59;102713.97;5067535;28;20033;-74
2022/10/19 05:39:46;;;;;;;14.05;6.90;;;;;;;6.49;89.53;102713.84;5058228;28;20551;-74
2022/10/19 05:42:11;;;;;;;12.38;6.95;;;;;;;6.48;89.58;102712.03;5076428;28;20546;-74
2022/10/19 05:44:37;;;;;;;16.75;7.63;;;;;;;6.47;89.49;102717.13;5057347;28;20081;-74
2022/10/19 05:47:02;;;;;;;16.42;7.43;;;;;;;6.46;89.61;102710.13;5065106;28;20029;-74
2022/10/19 05:49:28;;;;;;;14.60;7.80;;;;;;;6.45;89.76;102714.41;5060173;28;20103;-74
2022/10/19 05:51:53;;;;;;;13.85;7.75;;;;;;;6.41;89.89;102708.09;5060144;28;20040;-74
2022/10/19 05:54:19;;;;;;;16.13;7.13;;;;;;;6.41;89.52;102705.50;5058168;28;20483;-74
2022/10/19 05:56:44;;;;;;;14.27;7.50;;;;;;;6.39;89.47;102722.66;5062605;28;20090;-74
2022/10/19 05:59:14;;;;;;;13.02;6.97;;;;;;;6.36;90.12;102717.25;5076415;28;20034;-74
2022/10/19 06:01:40;;;;;;;13.93;7.35;;;;;;;6.34;90.27;102718.81;5059744;28;20028;-73
2022/10/19 06:04:06;;;;;;;14.95;7.43;;;;;;;6.35;89.83;102712.88;5059847;28;20039;-74
2022/10/19 06:06:32;;;;;;;14.00;7.30;;;;;;;6.33;89.64;102717.03;5059448;28;20016;-74
2022/10/19 06:08:57;;;;;;;13.77;7.20;;;;;;;6.32;89.71;102712.66;5061789;28;20059;-74
2022/10/19 06:11:33;;;;;;;13.57;7.35;;;;;;;6.31;89.73;102707.38;5075263;28;20099;-74
2022/10/19 06:14:01;;;;;;;12.75;7.90;;;;;;;6.30;89.95;102703.88;5057241;28;20051;-73
2022/10/19 06:16:28;;;;;;;15.63;7.53;;;;;;;6.28;90.32;102704.56;5059218;28;20119;-74
2022/10/19 06:18:55;;;;;;;13.48;7.47;;;;;;;6.28;90.06;102705.44;5059081;28;20113;-74
2022/10/19 06:21:27;;;;;;;15.20;7.68;;;;;;;6.28;90.38;102699.38;5058471;28;20094;-74
2022/10/19 06:23:55;;;;;;;15.90;8.23;;;;;;;6.29;90.70;102688.25;5071582;28;20494;-74
2022/10/19 06:26:21;;;;;;;13.95;7.93;;;;;;;6.31;91.20;102703.06;5059371;28;20115;-74
2022/10/19 06:28:47;;;;;;;13.90;7.80;;;;;;;6.28;90.55;102694.22;5061238;28;20136;-74
2022/10/19 06:31:13;;;;;;;14.45;7.85;;;;;;;6.25;91.11;102692.28;5056822;28;20033;-74
2022/10/19 06:33:40;;;;;;;13.50;8.13;;;;;;;6.27;91.64;102701.06;5057289;28;20024;-73
2022/10/19 06:36:10;;;;;;;14.63;8.30;;;;;;;6.28;91.85;102710.63;5056024;28;20073;-74
2022/10/19 06:38:35;;;;;;;13.85;7.63;;;;;;;6.29;91.49;102707.25;5069547;28;20063;-73
2022/10/19 06:41:01;;;;;;;15.15;8.52;;;;;;;6.31;92.41;102704.78;5065898;28;20029;-73
2022/10/19 06:43:26;;;;;;;16.75;8.60;;;;;;;6.31;92.62;102713.44;5058861;28;20089;-73
2022/10/19 06:45:52;;;;;;;15.35;8.40;;;;;;;6.31;92.03;102715.13;5056909;28;20040;-74
2022/10/19 06:48:17;;;;;;;14.38;8.52;;;;;;;6.30;92.36;102719.41;5057873;28;20511;-69
2022/10/19 06:50:42;;;;;;;14.13;8.32;;;;;;;6.31;92.41;102721.19;5059013;28;20148;-70
2022/10/19 06:53:08;;;;;;;14.43;8.18;;;;;;;6.30;92.46;102722.00;5059079;28;20504;-70
2022/10/19 06:55:33;;;;;;;14.25;8.20;;;;;;;6.31;92.72;102721.19;5059424;28;20134;-70
2022/10/19 06:58:00;;;;;;;16.63;8.57;;;;;;;6.30;92.20;102714.25;5057815;28;20889;-70
2022/10/19 07:00:29;;;;;;;14.90;9.07;;;;;;;6.31;92.54;102712.53;5066578;28;20032;-70
2022/10/19 07:02:55;;;;;;;15.13;8.95;;;;;;;6.32;93.43;102715.25;5062631;28;20029;-70
2022/10/19 07:05:21;;;;;;;13.02;8.40;;;;;;;6.30;93.25;102708.16;5067401;28;20024;-70
2022/10/19 07:07:46;;;;;;;15.40;8.75;;;;;;;6.31;93.44;102713.44;5067128;28;20039;-70
2022/10/19 07:10:12;;;;;;;15.10;9.15;;;;;;;6.33;93.67;102708.34;5069403;28;20479;-70
2022/10/19 07:12:37;;;;;;;16.48;9.23;;;;;;;6.34;93.74;102699.81;5066835;28;20396;-70
2022/10/19 07:15:03;;;;;;;18.83;9.48;;;;;;;6.36;93.84;102709.50;5068054;28;20085;-69
2022/10/19 07:17:28;;;;;;;17.40;9.55;;;;;;;6.38;94.71;102712.19;5069060;28;20476;-74
2022/10/19 07:19:53;;;;;;;15.82;9.15;;;;;;;6.39;94.40;102712.28;5067708;28;20503;-74
2022/10/19 07:22:19;;;;;;;17.88;9.25;;;;;;;6.42;94.74;102720.28;5059774;28;20449;-74
2022/10/19 07:24:44;;;;;;;17.20;9.77;;;;;;;6.42;95.09;102717.69;5062706;28;20475;-74
2022/10/19 07:27:10;;;;;;;15.43;9.63;;;;;;;6.47;95.34;102714.53;5058887;28;20032;-74
2022/10/19 07:29:35;;;;;;;14.98;8.55;;;;;;;6.50;95.45;102712.16;5067120;28;20529;-74
2022/10/19 07:32:00;;;;;;;17.50;9.68;;;;;;;6.55;95.53;102710.78;5069031;28;20029;-74
2022/10/19 07:34:25;;;;;;;17.42;9.13;;;;;;;6.59;95.61;102713.69;5066475;28;20016;-74
2022/10/19 07:36:51;;;;;;;15.65;9.70;;;;;;;6.65;95.60;102720.09;5066110;28;20515;-74
2022/10/19 07:39:17;;;;;;;17.30;10.02;;;;;;;6.68;96.07;102713.44;5068845;28;20036;-74
2022/10/19 07:41:43;;;;;;;16.73;10.00;;;;;;;6.72;96.61;102714.53;5081616;28;20008;-74
2022/10/19 07:44:08;;;;;;;17.83;9.63;;;;;;;6.74;96.46;102708.69;5064070;28;20028;-74
2022/10/19 07:46:35;;;;;;;19.13;9.60;;;;;;;6.76;96.97;102696.75;5068113;28;20518;-70
2022/10/19 07:49:02;;;;;;;17.23;9.57;;;;;;;6.83;96.62;102702.34;5067771;28;20036;-70
2022/10/19 07:51:28;;;;;;;15.35;9.63;;;;;;;6.87;96.72;102704.34;5067540;28;20028;-70
2022/10/19 07:53:53;;;;;;;18.95;9.40;;;;;;;6.95;97.68;102692.81;5067498;28;20032;-69
2022/10/19 07:56:21;;;;;;;21.17;10.23;;;;;;;7.00;97.99;102698.31;5066430;28;20021;-70
2022/10/19 07:58:48;;;;;;;18.67;10.23;;;;;;;7.07;98.71;102701.44;5065025;28;20062;-70
2022/10/19 08:01:16;;;;;;;16.73;9.73;;;;;;;7.11;98.48;102699.94;5060828;28;20084;-69
2022/10/19 08:03:42;;;;;;;18.52;10.40;;;;;;;7.17;98.43;102700.38;5057171;28;20024;-70
2022/10/19 08:06:11;;;;;;;21.35;11.52;;;;;;;7.24;99.75;102696.47;5057714;28;20033;-70
2022/10/19 08:08:37;;;;;;;16.70;9.85;;;;;;;7.31;99.91;102688.31;5058583;28;20552;-70
2022/10/19 08:11:10;;;;;;;19.48;10.60;;;;;;;7.37;99.95;102688.75;5060573;28;20029;-70
2022/10/19 08:13:36;;;;;;;19.23;10.25;;;;;;;7.42;99.79;102689.03;5063346;28;20017;-69
2022/10/19 08:16:02;;;;;;;18.33;10.57;;;;;;;7.46;99.76;102691.94;5072284;28;20071;-70
2022/10/19 08:18:28;;;;;;;20.95;11.10;;;;;;;7.54;100.00;102692.41;5070973;28;20361;-73
2022/10/19 08:20:53;;;;;;;18.25;10.50;;;;;;;7.61;100.00;102696.31;5085569;28;20404;-73
2022/10/19 08:23:18;;;;;;;19.60;10.65;;;;;;;7.68;100.00;102695.94;5072717;28;20107;-73
2022/10/19 08:25:43;;;;;;;18.50;10.38;;;;;;;7.71;100.00;102690.94;5072310;28;20025;-73
2022/10/19 08:28:09;;;;;;;22.67;11.15;;;;;;;7.75;100.00;102687.75;5069227;28;20107;-73
2022/10/19 08:30:35;;;;;;;18.95;10.95;;;;;;;7.79;100.00;102676.78;5066704;28;20294;-73
2022/10/19 08:33:02;;;;;;;22.50;10.75;;;;;;;7.85;100.00;102676.28;5060887;28;20115;-73
2022/10/19 08:35:29;;;;;;;19.83;10.45;;;;;;;7.89;100.00;102664.38;5062181;28;20024;-73
2022/10/19 08:37:54;;;;;;;20.25;11.10;;;;;;;7.97;100.00;102652.78;5061299;28;20032;-74
2022/10/19 08:40:24;;;;;;;20.83;10.93;;;;;;;8.04;100.00;102665.38;5061783;28;20065;-74
2022/10/19 08:42:57;;;;;;;;;;;;;;;8.13;100.00;102663.34;5062223;28;20103;-73
2022/10/19 08:45:35;;;;;;;23.98;10.43;;;;;;;8.22;100.00;102654.34;5062386;28;19920;-73
2022/10/19 08:48:20;;;;;;;21.90;10.65;;;;;;;8.30;100.00;102651.41;5061882;28;20608;-73
2022/10/19 08:50:46;;;;;;;30.85;11.27;;;;;;;8.39;100.00;102643.28;5063550;28;20031;-73
2022/10/19 08:53:29;;;;;;;21.10;11.13;;;;;;;8.47;100.00;102649.91;5069999;28;20104;-73
2022/10/19 08:56:14;;;;;;;21.98;10.93;;;;;;;8.55;100.00;102652.97;5066036;28;20107;-74
2022/10/19 08:58:42;;;;;;;27.92;11.55;;;;;;;8.64;100.00;102644.81;5066596;28;20059;-73
2022/10/19 09:01:30;;;;;;;25.42;11.18;;;;;;;8.76;100.00;102639.47;5062099;28;20043;-74
2022/10/19 09:04:04;;;;;;;22.90;11.40;;;;;;;8.84;100.00;102646.91;5065976;28;20029;-74
2022/10/19 09:06:48;;;;;;;24.65;11.07;;;;;;;8.95;100.00;102641.44;5064336;28;20035;-74
2022/10/19 09:09:17;;;;;;;22.90;10.32;;;;;;;9.02;100.00;102646.19;5066154;28;20476;-73
2022/10/19 09:11:47;;;;;;;21.50;10.97;;;;;;;9.09;100.00;102640.56;5066890;28;20025;-73
2022/10/19 09:14:21;;;;;;;20.58;9.95;;;;;;;9.16;100.00;102637.50;5067044;28;20060;-73
2022/10/19 09:16:47;;;;;;;23.25;9.57;;;;;;;9.23;100.00;102624.06;5066681;28;20451;-74
2022/10/19 09:19:24;;;;;;;21.85;9.68;;;;;;;9.34;100.00;102636.78;5067596;28;20033;-74
2022/10/19 09:21:55;;;;;;;22.90;9.75;;;;;;;9.41;99.64;102631.13;5066829;28;20028;-74
2022/10/19 09:24:34;;;;;;;25.35;9.77;;;;;;;9.47;99.45;102633.19;5070370;28;20029;-74
2022/10/19 09:27:01;;;;;;;22.33;10.10;;;;;;;9.53;99.51;102644.84;5068705;28;20483;-70
2022/10/19 09:29:46;;;;;;;20.88;9.68;;;;;;;9.61;98.76;102652.19;5067241;28;20045;-70
2022/10/19 09:32:17;;;;;;;20.60;9.35;;;;;;;9.67;98.86;102652.53;5065626;28;20028;-70
2022/10/19 09:34:52;;;;;;;26.40;9.52;;;;;;;9.71;99.15;102644.97;5069434;28;20028;-70
2022/10/19 09:37:19;;;;;;;22.45;8.88;;;;;;;9.77;98.82;102646.13;5067431;28;20115;-70
2022/10/19 09:39:44;;;;;;;21.55;9.10;;;;;;;9.82;98.50;102643.00;5068589;28;20064;-69
2022/10/19 09:42:22;;;;;;;20.73;9.80;;;;;;;9.86;97.55;102637.16;5063036;28;20056;-69
2022/10/19 09:44:49;;;;;;;26.15;9.93;;;;;;;9.90;97.05;102639.06;5067278;28;20040;-69
2022/10/19 09:47:31;;;;;;;21.88;9.60;;;;;;;9.97;97.77;102636.84;5067585;28;20025;-69
2022/10/19 09:50:16;;;;;;;27.10;10.43;;;;;;;10.06;97.24;102621.69;5067384;28;20170;-68
2022/10/19 09:52:47;;;;;;;23.88;10.25;;;;;;;10.15;96.28;102616.09;5066533;28;20025;-69
2022/10/19 09:55:12;;;;;;;26.63;9.55;;;;;;;10.25;96.24;102629.72;5064033;28;20032;-69
2022/10/19 09:57:43;;;;;;;25.13;9.80;;;;;;;10.31;95.69;102630.84;5068442;28;20438;-69
2022/10/19 10:00:24;;;;;;;23.40;9.70;;;;;;;10.37;95.16;102605.13;5067225;28;20294;-68
2022/10/19 10:02:51;;;;;;;26.08;9.68;;;;;;;10.43;94.92;102598.53;5068936;28;20568;-69
2022/10/19 10:05:18;;;;;;;22.80;8.88;;;;;;;10.48;93.10;102601.38;5070694;28;20027;-68
2022/10/19 10:07:44;;;;;;;22.65;9.55;;;;;;;10.53;93.65;102599.94;5068641;28;20048;-69
2022/10/19 10:10:22;;;;;;;25.00;9.60;;;;;;;10.61;93.39;102597.72;5067357;28;20024;-69
2022/10/19 10:12:48;;;;;;;29.15;10.52;;;;;;;10.71;92.14;102599.97;5068209;28;20037;-69
2022/10/19 10:15:22;;;;;;;17.58;8.52;;;;;;;10.82;92.95;102592.72;5068165;28;20407;-68
2022/10/19 10:17:49;;;;;;;20.92;9.23;;;;;;;10.91;92.37;102602.72;5068502;28;20488;-69
2022/10/19 10:20:31;;;;;;;23.50;9.80;;;;;;;11.01;91.75;102596.22;5068411;28;20028;-68
2022/10/19 10:23:02;;;;;;;25.38;9.20;;;;;;;11.10;91.83;102599.31;5068038;28;20550;-69
2022/10/19 10:25:32;;;;;;;24.38;9.30;;;;;;;11.17;90.58;102601.41;5063087;28;20052;-68
2022/10/19 10:28:01;;;;;;;22.38;9.30;;;;;;;11.29;90.72;102602.00;5062868;28;20028;-75
2022/10/19 10:30:33;;;;;;;22.92;8.57;;;;;;;11.40;89.69;102594.69;5068748;28;20040;-74
2022/10/19 10:32:59;;;;;;;24.17;10.00;;;;;;;11.54;90.21;102594.47;5069783;28;20032;-75
2022/10/19 10:35:31;;;;;;;19.55;8.27;;;;;;;11.68;88.19;102589.91;5068101;28;20082;-75
2022/10/19 10:38:16;;;;;;;24.15;8.48;;;;;;;11.84;88.70;102581.97;5069956;28;20036;-74
2022/10/19 10:40:51;;;;;;;22.05;8.95;;;;;;;12.00;87.90;102583.59;5069284;28;20036;-75
2022/10/19 10:43:19;;;;;;;25.90;9.25;;;;;;;12.14;86.74;102586.84;5066007;28;20106;-75
2022/10/19 10:45:48;;;;;;;25.60;9.30;;;;;;;12.23;85.63;102582.00;5070429;28;20020;-75
2022/10/19 10:48:20;;;;;;;25.00;9.25;;;;;;;12.33;85.90;102576.38;5068225;28;20103;-75
2022/10/19 10:50:46;;;;;;;26.13;9.60;;;;;;;12.49;86.88;102569.22;5069777;28;20024;-75
2022/10/19 10:53:38;;;;;;;17.88;8.85;;;;;;;12.65;85.23;102573.38;5068720;28;20075;-75
2022/10/19 10:56:12;;;;;;;21.45;9.63;;;;;;;12.77;84.52;102563.44;5067709;28;20024;-75
2022/10/19 10:59:01;;;;;;;22.98;9.23;;;;;;;12.90;83.36;102570.06;5068077;28;20036;-69
2022/10/19 11:01:36;;;;;;;23.98;9.23;;;;;;;12.91;82.77;102553.56;5069560;28;20035;-69
2022/10/19 11:04:09;;;;;;;22.95;9.10;;;;;;;12.92;82.94;102550.13;5069604;28;20032;-69
2022/10/19 11:07:00;;;;;;;27.23;9.90;;;;;;;13.03;82.09;102548.84;5068246;28;20073;-69
2022/10/19 11:09:33;;;;;;;19.88;9.77;;;;;;;13.14;81.76;102551.00;5068082;28;20076;-68
2022/10/19 11:12:03;;;;;;;23.20;10.38;;;;;;;13.20;80.89;102543.38;5067805;28;20028;-68
2022/10/19 11:14:36;;;;;;;22.55;9.55;;;;;;;13.23;79.45;102540.88;5070026;28;20103;-67
2022/10/19 11:17:11;;;;;;;20.67;9.05;;;;;;;13.28;80.10;102543.69;5064361;28;20483;-68
2022/10/19 11:19:43;;;;;;;22.35;9.88;;;;;;;13.35;80.11;102536.19;5069003;28;20036;-68
2022/10/19 11:22:47;;;;;;;19.00;9.80;;;;;;;13.49;81.11;102533.19;5066262;28;20028;-68
2022/10/19 11:25:28;;;;;;;22.85;10.07;;;;;;;13.57;79.22;102530.03;5050708;28;20056;-68
2022/10/19 11:28:21;;;;;;;21.23;9.65;;;;;;;13.67;78.93;102517.28;5066446;28;20024;-73
2022/10/19 11:31:02;;;;;;;24.55;9.63;;;;;;;13.71;78.53;102509.59;5066658;28;20041;-73
2022/10/19 11:33:58;;;;;;;27.70;9.68;;;;;;;13.78;77.91;102510.72;5066816;28;20024;-73
2022/10/19 11:36:49;;;;;;;22.17;9.45;;;;;;;13.87;76.02;102499.69;5059763;28;20106;-73